首页
METAR-TAF:

METAR-TAF

机场 :

Bric della Croce

都灵, 意大利

纬度: 45-02N, 经度: 007-44E, 海拔: 709米

当前天气观测

该预报发布于32分钟前的14:55 UTC
风速4节,风向北转东北
温度 23°C
湿度 69%
气压 1018 hPa
能见度10公里或以上
1500米以下无云,无积雨云

METAR: LIMK 171455Z 02004KT CAVOK 23/17 Q1018 RMK SKC VAL NIL VIS MIN 9999

时间: 17:27 (15:27 UTC)


TAF: 丢失

超过4000个机场的气象观测和天气预报(METAR&TAF报告)。

可查询的气象台以黄色和红色小点在地图上表示。

将鼠标移到小点上方,可查看气象台名称。

然后点击查看天气观测和预报。

如需切换地图:点击带黑十字的绿色按钮放大地图;点击带横线的绿色按钮缩小地图;或者点击绿色箭头查看邻近地区的地图。


METAR-TAF: